sensor_id;sensor_type;location;lat;lon;timestamp;pressure;altitude;pressure_sealevel;temperature;humidity
42335;BME280;27986;42.700;24.178;2023-02-23T00:01:48;93696.56;;;6.55;66.29
42335;BME280;27986;42.700;24.178;2023-02-23T00:04:13;93727.72;;;6.90;65.74
42335;BME280;27986;42.700;24.178;2023-02-23T00:06:39;93706.56;;;6.89;64.88
42335;BME280;27986;42.700;24.178;2023-02-23T00:09:04;93733.31;;;6.85;65.58
42335;BME280;27986;42.700;24.178;2023-02-23T00:11:40;93728.72;;;6.76;66.11
42335;BME280;27986;42.700;24.178;2023-02-23T00:14:06;93697.13;;;6.64;65.69
42335;BME280;27986;42.700;24.178;2023-02-23T00:16:33;93704.25;;;6.76;65.14
42335;BME280;27986;42.700;24.178;2023-02-23T00:18:58;93729.53;;;6.99;64.58
42335;BME280;27986;42.700;24.178;2023-02-23T00:21:29;93724.03;;;6.45;66.00
42335;BME280;27986;42.700;24.178;2023-02-23T00:23:58;93745.44;;;6.48;66.89
42335;BME280;27986;42.700;24.178;2023-02-23T00:26:26;93745.69;;;6.56;66.22
42335;BME280;27986;42.700;24.178;2023-02-23T00:28:56;93741.88;;;6.53;66.40
42335;BME280;27986;42.700;24.178;2023-02-23T00:31:23;93695.69;;;6.15;66.63
42335;BME280;27986;42.700;24.178;2023-02-23T00:33:54;93729.81;;;6.30;67.73
42335;BME280;27986;42.700;24.178;2023-02-23T00:36:26;93707.19;;;6.34;67.15
42335;BME280;27986;42.700;24.178;2023-02-23T00:38:53;93729.56;;;6.23;67.15
42335;BME280;27986;42.700;24.178;2023-02-23T00:41:19;93736.50;;;5.90;69.29
42335;BME280;27986;42.700;24.178;2023-02-23T00:43:57;93712.41;;;5.98;68.54
42335;BME280;27986;42.700;24.178;2023-02-23T00:46:25;93703.84;;;6.18;67.16
42335;BME280;27986;42.700;24.178;2023-02-23T00:48:55;93715.06;;;6.24;67.09
42335;BME280;27986;42.700;24.178;2023-02-23T00:51:22;93736.25;;;6.42;66.72
42335;BME280;27986;42.700;24.178;2023-02-23T00:53:52;93738.78;;;6.34;67.08
42335;BME280;27986;42.700;24.178;2023-02-23T00:56:17;93727.94;;;5.99;68.02
42335;BME280;27986;42.700;24.178;2023-02-23T00:58:43;93682.41;;;5.61;68.52
42335;BME280;27986;42.700;24.178;2023-02-23T01:01:11;93727.38;;;5.95;69.17
42335;BME280;27986;42.700;24.178;2023-02-23T01:03:38;93686.34;;;5.81;68.96
42335;BME280;27986;42.700;24.178;2023-02-23T01:06:07;93753.19;;;6.16;68.18
42335;BME280;27986;42.700;24.178;2023-02-23T01:08:35;93744.53;;;6.14;68.40
42335;BME280;27986;42.700;24.178;2023-02-23T01:11:09;93736.44;;;6.27;68.02
42335;BME280;27986;42.700;24.178;2023-02-23T01:13:36;93745.91;;;6.35;66.30
42335;BME280;27986;42.700;24.178;2023-02-23T01:16:08;93754.75;;;6.23;66.25
42335;BME280;27986;42.700;24.178;2023-02-23T01:18:35;93740.94;;;6.08;66.04
42335;BME280;27986;42.700;24.178;2023-02-23T01:21:02;93700.41;;;5.55;67.49
42335;BME280;27986;42.700;24.178;2023-02-23T01:23:29;93742.06;;;5.84;68.01
42335;BME280;27986;42.700;24.178;2023-02-23T01:25:55;93720.06;;;5.29;70.13
42335;BME280;27986;42.700;24.178;2023-02-23T01:28:20;93692.16;;;5.03;71.76
42335;BME280;27986;42.700;24.178;2023-02-23T01:30:46;93697.91;;;4.88;72.93
42335;BME280;27986;42.700;24.178;2023-02-23T01:33:11;93708.53;;;5.16;73.79
42335;BME280;27986;42.700;24.178;2023-02-23T01:35:38;93714.19;;;5.27;73.02
42335;BME280;27986;42.700;24.178;2023-02-23T01:38:03;93730.66;;;5.51;72.08
42335;BME280;27986;42.700;24.178;2023-02-23T01:40:29;93697.28;;;5.42;70.85
42335;BME280;27986;42.700;24.178;2023-02-23T01:45:32;93731.78;;;6.07;67.65
42335;BME280;27986;42.700;24.178;2023-02-23T01:51:06;93734.78;;;5.98;66.83
42335;BME280;27986;42.700;24.178;2023-02-23T01:53:35;93702.84;;;5.73;66.83
42335;BME280;27986;42.700;24.178;2023-02-23T01:56:08;93744.03;;;6.15;66.73
42335;BME280;27986;42.700;24.178;2023-02-23T01:58:38;93706.34;;;6.11;65.95
42335;BME280;27986;42.700;24.178;2023-02-23T02:01:05;93713.13;;;5.93;65.88
42335;BME280;27986;42.700;24.178;2023-02-23T02:03:39;93719.41;;;5.88;67.49
42335;BME280;27986;42.700;24.178;2023-02-23T02:06:07;93715.38;;;5.89;67.64
42335;BME280;27986;42.700;24.178;2023-02-23T02:08:35;93724.06;;;5.91;68.38
42335;BME280;27986;42.700;24.178;2023-02-23T02:11:11;93731.25;;;6.03;68.04
42335;BME280;27986;42.700;24.178;2023-02-23T02:13:52;93704.88;;;5.73;68.13
42335;BME280;27986;42.700;24.178;2023-02-23T02:46:22;93723.44;;;5.07;70.23
42335;BME280;27986;42.700;24.178;2023-02-23T02:49:10;93738.38;;;4.98;72.56
42335;BME280;27986;42.700;24.178;2023-02-23T02:51:53;93743.97;;;5.04;73.35
42335;BME280;27986;42.700;24.178;2023-02-23T02:56:47;93722.38;;;5.30;71.84
42335;BME280;27986;42.700;24.178;2023-02-23T02:59:16;93713.22;;;4.98;72.05
42335;BME280;27986;42.700;24.178;2023-02-23T03:02:02;93724.13;;;4.96;73.98
42335;BME280;27986;42.700;24.178;2023-02-23T03:04:47;93709.94;;;5.00;73.21
42335;BME280;27986;42.700;24.178;2023-02-23T03:10:47;93734.78;;;5.29;74.52
42335;BME280;27986;42.700;24.178;2023-02-23T03:20:05;93733.91;;;5.44;71.58
42335;BME280;27986;42.700;24.178;2023-02-23T03:22:59;93707.09;;;5.26;70.98
42335;BME280;27986;42.700;24.178;2023-02-23T03:26:10;93724.78;;;5.49;68.40
42335;BME280;27986;42.700;24.178;2023-02-23T03:35:27;93745.19;;;5.23;70.17
42335;BME280;27986;42.700;24.178;2023-02-23T03:38:38;93744.59;;;5.14;69.99
42335;BME280;27986;42.700;24.178;2023-02-23T03:41:25;93739.19;;;4.78;71.36
42335;BME280;27986;42.700;24.178;2023-02-23T03:44:18;93733.13;;;4.54;72.68
42335;BME280;27986;42.700;24.178;2023-02-23T03:47:05;93741.16;;;4.72;73.31
42335;BME280;27986;42.700;24.178;2023-02-23T03:49:50;93725.44;;;5.01;71.54
42335;BME280;27986;42.700;24.178;2023-02-23T03:52:43;93742.56;;;5.14;70.31
42335;BME280;27986;42.700;24.178;2023-02-23T03:55:32;93729.31;;;5.09;70.56
42335;BME280;27986;42.700;24.178;2023-02-23T03:58:23;93682.81;;;5.06;69.92
42335;BME280;27986;42.700;24.178;2023-02-23T04:01:16;93717.25;;;5.29;69.46
42335;BME280;27986;42.700;24.178;2023-02-23T04:04:02;93684.00;;;4.99;68.80
42335;BME280;27986;42.700;24.178;2023-02-23T04:06:48;93683.50;;;4.69;70.61
42335;BME280;27986;42.700;24.178;2023-02-23T04:09:33;93733.19;;;5.17;71.15
42335;BME280;27986;42.700;24.178;2023-02-23T04:12:37;93747.53;;;5.30;71.05
42335;BME280;27986;42.700;24.178;2023-02-23T04:15:38;93685.69;;;4.60;71.85
42335;BME280;27986;42.700;24.178;2023-02-23T04:18:06;93676.31;;;4.37;73.18
42335;BME280;27986;42.700;24.178;2023-02-23T04:20:36;93746.19;;;4.68;73.74
42335;BME280;27986;42.700;24.178;2023-02-23T04:23:01;93690.56;;;4.39;73.47
42335;BME280;27986;42.700;24.178;2023-02-23T04:25:28;93680.28;;;4.50;73.10
42335;BME280;27986;42.700;24.178;2023-02-23T04:27:54;93685.34;;;4.52;73.36
42335;BME280;27986;42.700;24.178;2023-02-23T04:30:20;93690.41;;;4.48;73.77
42335;BME280;27986;42.700;24.178;2023-02-23T04:32:45;93672.66;;;4.25;74.36
42335;BME280;27986;42.700;24.178;2023-02-23T04:35:11;93726.44;;;4.26;76.41
42335;BME280;27986;42.700;24.178;2023-02-23T04:37:37;93749.91;;;4.13;78.66
42335;BME280;27986;42.700;24.178;2023-02-23T04:40:04;93723.38;;;4.03;79.83
42335;BME280;27986;42.700;24.178;2023-02-23T04:42:30;93727.09;;;4.15;80.05
42335;BME280;27986;42.700;24.178;2023-02-23T04:44:55;93736.25;;;4.41;80.02
42335;BME280;27986;42.700;24.178;2023-02-23T04:47:21;93700.38;;;4.55;78.56
42335;BME280;27986;42.700;24.178;2023-02-23T04:49:46;93686.56;;;4.71;76.61
42335;BME280;27986;42.700;24.178;2023-02-23T04:52:12;93734.25;;;4.94;75.31
42335;BME280;27986;42.700;24.178;2023-02-23T04:54:40;93710.38;;;4.93;74.39
42335;BME280;27986;42.700;24.178;2023-02-23T04:57:06;93687.03;;;4.70;73.27
42335;BME280;27986;42.700;24.178;2023-02-23T04:59:32;93719.41;;;5.08;70.88
42335;BME280;27986;42.700;24.178;2023-02-23T05:01:57;93719.41;;;4.82;71.06
42335;BME280;27986;42.700;24.178;2023-02-23T05:04:23;93702.16;;;4.84;69.45
42335;BME280;27986;42.700;24.178;2023-02-23T05:06:48;93727.75;;;4.76;69.55
42335;BME280;27986;42.700;24.178;2023-02-23T05:09:14;93696.31;;;4.09;71.84
42335;BME280;27986;42.700;24.178;2023-02-23T05:11:39;93710.81;;;3.93;73.10
42335;BME280;27986;42.700;24.178;2023-02-23T05:14:05;93725.47;;;3.88;74.24
42335;BME280;27986;42.700;24.178;2023-02-23T05:16:31;93754.53;;;3.81;76.17
42335;BME280;27986;42.700;24.178;2023-02-23T05:18:57;93755.94;;;3.91;76.37
42335;BME280;27986;42.700;24.178;2023-02-23T05:21:22;93774.44;;;4.30;75.14
42335;BME280;27986;42.700;24.178;2023-02-23T05:23:49;93763.19;;;4.44;74.83
42335;BME280;27986;42.700;24.178;2023-02-23T05:26:14;93712.75;;;4.28;74.41
42335;BME280;27986;42.700;24.178;2023-02-23T05:28:41;93764.44;;;4.64;73.64
42335;BME280;27986;42.700;24.178;2023-02-23T05:31:07;93750.84;;;4.51;73.14
42335;BME280;27986;42.700;24.178;2023-02-23T05:33:34;93742.63;;;4.68;72.43
42335;BME280;27986;42.700;24.178;2023-02-23T05:36:10;93750.56;;;5.01;71.34
42335;BME280;27986;42.700;24.178;2023-02-23T05:38:36;93772.00;;;5.09;70.91
42335;BME280;27986;42.700;24.178;2023-02-23T05:41:10;93770.56;;;4.68;72.98
42335;BME280;27986;42.700;24.178;2023-02-23T05:43:36;93798.16;;;4.86;73.70
42335;BME280;27986;42.700;24.178;2023-02-23T05:46:09;93774.50;;;4.56;74.86
42335;BME280;27986;42.700;24.178;2023-02-23T05:48:35;93755.47;;;4.34;75.88
42335;BME280;27986;42.700;24.178;2023-02-23T05:51:06;93782.75;;;4.91;75.38
42335;BME280;27986;42.700;24.178;2023-02-23T05:53:31;93804.38;;;4.96;75.07
42335;BME280;27986;42.700;24.178;2023-02-23T05:55:57;93793.91;;;4.91;74.70
42335;BME280;27986;42.700;24.178;2023-02-23T05:58:23;93761.75;;;5.01;73.66
42335;BME280;27986;42.700;24.178;2023-02-23T06:00:48;93773.66;;;5.27;72.81
42335;BME280;27986;42.700;24.178;2023-02-23T06:03:17;93761.91;;;5.18;72.60
42335;BME280;27986;42.700;24.178;2023-02-23T06:05:50;93808.38;;;5.41;71.56
42335;BME280;27986;42.700;24.178;2023-02-23T06:08:24;93812.81;;;5.59;75.42
42335;BME280;27986;42.700;24.178;2023-02-23T06:10:50;93760.63;;;5.50;74.39
42335;BME280;27986;42.700;24.178;2023-02-23T06:13:19;93738.03;;;6.45;77.69
42335;BME280;27986;42.700;24.178;2023-02-23T06:15:48;93779.75;;;7.19;68.32
42335;BME280;27986;42.700;24.178;2023-02-23T06:18:16;93811.88;;;8.30;65.91
42335;BME280;27986;42.700;24.178;2023-02-23T06:20:42;93736.59;;;8.12;59.45
42335;BME280;27986;42.700;24.178;2023-02-23T06:23:08;93812.59;;;8.59;57.03
42335;BME280;27986;42.700;24.178;2023-02-23T06:25:33;93779.19;;;8.22;57.40
42335;BME280;27986;42.700;24.178;2023-02-23T06:27:59;93742.03;;;7.76;58.28
42335;BME280;27986;42.700;24.178;2023-02-23T06:30:27;93732.06;;;6.97;61.65
42335;BME280;27986;42.700;24.178;2023-02-23T06:32:53;93761.16;;;7.16;63.21
42335;BME280;27986;42.700;24.178;2023-02-23T06:35:20;93798.59;;;7.08;65.57
42335;BME280;27986;42.700;24.178;2023-02-23T06:37:48;93760.75;;;6.58;67.60
42335;BME280;27986;42.700;24.178;2023-02-23T06:40:14;93760.13;;;7.36;71.92
42335;BME280;27986;42.700;24.178;2023-02-23T06:42:39;93756.72;;;8.22;68.39
42335;BME280;27986;42.700;24.178;2023-02-23T06:45:05;93812.88;;;9.13;62.16
42335;BME280;27986;42.700;24.178;2023-02-23T06:47:34;93780.63;;;9.14;61.79
42335;BME280;27986;42.700;24.178;2023-02-23T06:49:59;93794.75;;;9.85;57.57
42335;BME280;27986;42.700;24.178;2023-02-23T06:52:26;93776.91;;;10.32;56.20
42335;BME280;27986;42.700;24.178;2023-02-23T06:54:54;93808.88;;;10.83;55.43
42335;BME280;27986;42.700;24.178;2023-02-23T06:57:19;93782.25;;;11.03;53.05
42335;BME280;27986;42.700;24.178;2023-02-23T06:59:45;93804.22;;;11.10;50.48
42335;BME280;27986;42.700;24.178;2023-02-23T07:02:12;93784.81;;;10.58;52.71
42335;BME280;27986;42.700;24.178;2023-02-23T07:04:38;93751.34;;;10.49;51.42
42335;BME280;27986;42.700;24.178;2023-02-23T07:07:03;93811.06;;;10.96;51.21
42335;BME280;27986;42.700;24.178;2023-02-23T07:09:31;93758.53;;;9.65;51.73
42335;BME280;27986;42.700;24.178;2023-02-23T07:11:58;93730.97;;;9.22;54.81
42335;BME280;27986;42.700;24.178;2023-02-23T07:14:24;93822.63;;;9.83;54.51
42335;BME280;27986;42.700;24.178;2023-02-23T07:16:49;93754.44;;;9.66;55.44
42335;BME280;27986;42.700;24.178;2023-02-23T07:19:15;93767.69;;;9.77;54.08
42335;BME280;27986;42.700;24.178;2023-02-23T07:21:41;93767.44;;;8.98;56.87
42335;BME280;27986;42.700;24.178;2023-02-23T07:24:07;93821.88;;;9.00;59.07
42335;BME280;27986;42.700;24.178;2023-02-23T07:26:34;93769.88;;;9.18;57.84
42335;BME280;27986;42.700;24.178;2023-02-23T07:29:00;93803.34;;;9.63;57.25
42335;BME280;27986;42.700;24.178;2023-02-23T07:31:26;93796.22;;;9.21;58.58
42335;BME280;27986;42.700;24.178;2023-02-23T07:33:52;93772.59;;;8.88;59.26
42335;BME280;27986;42.700;24.178;2023-02-23T07:36:23;93802.69;;;8.99;60.20
42335;BME280;27986;42.700;24.178;2023-02-23T07:38:52;93729.72;;;8.77;59.58
42335;BME280;27986;42.700;24.178;2023-02-23T07:41:20;93717.31;;;9.02;58.55
42335;BME280;27986;42.700;24.178;2023-02-23T07:43:46;93799.44;;;9.72;58.49
42335;BME280;27986;42.700;24.178;2023-02-23T07:46:12;93721.75;;;9.27;57.65
42335;BME280;27986;42.700;24.178;2023-02-23T07:48:40;93806.59;;;9.73;58.58
42335;BME280;27986;42.700;24.178;2023-02-23T07:51:13;93794.88;;;9.99;58.65
42335;BME280;27986;42.700;24.178;2023-02-23T07:53:40;93763.13;;;9.68;57.81
42335;BME280;27986;42.700;24.178;2023-02-23T07:56:07;93801.41;;;9.82;59.42
42335;BME280;27986;42.700;24.178;2023-02-23T07:58:46;93793.28;;;10.58;57.00
42335;BME280;27986;42.700;24.178;2023-02-23T08:01:19;93779.38;;;11.27;55.48
42335;BME280;27986;42.700;24.178;2023-02-23T08:03:44;93741.19;;;10.83;52.78
42335;BME280;27986;42.700;24.178;2023-02-23T08:06:14;93702.28;;;10.38;54.23
42335;BME280;27986;42.700;24.178;2023-02-23T08:08:41;93757.53;;;10.90;53.58
42335;BME280;27986;42.700;24.178;2023-02-23T08:11:07;93797.66;;;11.02;54.26
42335;BME280;27986;42.700;24.178;2023-02-23T08:13:33;93737.41;;;10.37;54.70
42335;BME280;27986;42.700;24.178;2023-02-23T08:16:00;93785.19;;;10.49;55.85
42335;BME280;27986;42.700;24.178;2023-02-23T08:18:25;93747.53;;;10.22;54.95
42335;BME280;27986;42.700;24.178;2023-02-23T08:20:59;93765.44;;;10.73;53.61
42335;BME280;27986;42.700;24.178;2023-02-23T08:23:25;93789.59;;;10.44;55.48
42335;BME280;27986;42.700;24.178;2023-02-23T08:25:55;93793.34;;;9.98;57.81
42335;BME280;27986;42.700;24.178;2023-02-23T08:28:20;93766.63;;;9.80;58.77
42335;BME280;27986;42.700;24.178;2023-02-23T08:30:48;93719.66;;;9.34;59.26
42335;BME280;27986;42.700;24.178;2023-02-23T08:33:14;93763.13;;;9.68;60.12
42335;BME280;27986;42.700;24.178;2023-02-23T08:35:39;93735.78;;;9.63;59.15
42335;BME280;27986;42.700;24.178;2023-02-23T08:38:08;93783.53;;;9.74;59.71
42335;BME280;27986;42.700;24.178;2023-02-23T08:40:36;93773.59;;;10.03;59.56
42335;BME280;27986;42.700;24.178;2023-02-23T08:43:02;93719.69;;;9.88;57.89
42335;BME280;27986;42.700;24.178;2023-02-23T08:45:28;93735.84;;;9.87;58.38
42335;BME280;27986;42.700;24.178;2023-02-23T08:47:54;93778.25;;;10.25;58.50
42335;BME280;27986;42.700;24.178;2023-02-23T08:50:20;93779.06;;;10.20;58.80
42335;BME280;27986;42.700;24.178;2023-02-23T08:52:46;93740.72;;;10.11;58.44
42335;BME280;27986;42.700;24.178;2023-02-23T08:55:12;93764.41;;;10.52;57.83
42335;BME280;27986;42.700;24.178;2023-02-23T08:57:40;93764.34;;;10.76;56.63
42335;BME280;27986;42.700;24.178;2023-02-23T09:00:06;93754.75;;;10.66;56.48
42335;BME280;27986;42.700;24.178;2023-02-23T09:02:39;93755.56;;;10.85;56.25
42335;BME280;27986;42.700;24.178;2023-02-23T09:05:07;93769.22;;;11.19;54.88
42335;BME280;27986;42.700;24.178;2023-02-23T09:07:32;93800.78;;;11.36;55.93
42335;BME280;27986;42.700;24.178;2023-02-23T09:09:58;93757.00;;;11.30;55.36
42335;BME280;27986;42.700;24.178;2023-02-23T09:12:26;93731.13;;;11.44;54.57
42335;BME280;27986;42.700;24.178;2023-02-23T09:15:00;93792.66;;;12.16;52.88
42335;BME280;27986;42.700;24.178;2023-02-23T09:17:28;93770.50;;;12.20;52.59
42335;BME280;27986;42.700;24.178;2023-02-23T09:19:56;93764.44;;;12.42;51.92
42335;BME280;27986;42.700;24.178;2023-02-23T09:22:22;93777.19;;;12.62;51.28
42335;BME280;27986;42.700;24.178;2023-02-23T09:24:47;93761.81;;;12.44;50.98
42335;BME280;27986;42.700;24.178;2023-02-23T09:27:13;93752.66;;;12.11;50.87
42335;BME280;27986;42.700;24.178;2023-02-23T09:29:39;93780.88;;;12.57;51.09
42335;BME280;27986;42.700;24.178;2023-02-23T09:32:07;93753.13;;;12.55;49.95
42335;BME280;27986;42.700;24.178;2023-02-23T09:34:32;93755.31;;;12.76;49.79
42335;BME280;27986;42.700;24.178;2023-02-23T09:37:00;93756.81;;;12.90;49.27
42335;BME280;27986;42.700;24.178;2023-02-23T09:39:27;93768.66;;;13.28;48.81
42335;BME280;27986;42.700;24.178;2023-02-23T09:42:06;93773.72;;;13.77;48.15
42335;BME280;27986;42.700;24.178;2023-02-23T09:47:45;93772.31;;;14.25;46.48
42335;BME280;27986;42.700;24.178;2023-02-23T09:50:27;93759.09;;;14.28;46.08
42335;BME280;27986;42.700;24.178;2023-02-23T09:53:01;93757.34;;;13.62;47.02
42335;BME280;27986;42.700;24.178;2023-02-23T09:55:27;93744.94;;;13.52;47.45
42335;BME280;27986;42.700;24.178;2023-02-23T09:57:55;93760.22;;;13.49;47.82
42335;BME280;27986;42.700;24.178;2023-02-23T10:00:24;93737.13;;;13.45;47.44
42335;BME280;27986;42.700;24.178;2023-02-23T10:06:05;93729.84;;;13.36;47.64
42335;BME280;27986;42.700;24.178;2023-02-23T10:16:21;93759.25;;;13.46;47.96
42335;BME280;27986;42.700;24.178;2023-02-23T10:19:21;93735.28;;;13.68;47.49
42335;BME280;27986;42.700;24.178;2023-02-23T10:22:01;93745.31;;;13.69;46.78
42335;BME280;27986;42.700;24.178;2023-02-23T10:24:42;93702.75;;;13.62;46.66
42335;BME280;27986;42.700;24.178;2023-02-23T10:27:11;93742.91;;;13.94;46.68
42335;BME280;27986;42.700;24.178;2023-02-23T10:29:42;93721.19;;;14.18;46.16
42335;BME280;27986;42.700;24.178;2023-02-23T10:32:27;93730.25;;;14.16;47.20
42335;BME280;27986;42.700;24.178;2023-02-23T10:34:56;93726.38;;;14.27;46.43
42335;BME280;27986;42.700;24.178;2023-02-23T10:37:23;93713.44;;;14.39;46.30
42335;BME280;27986;42.700;24.178;2023-02-23T10:39:50;93734.16;;;14.83;45.46
42335;BME280;27986;42.700;24.178;2023-02-23T10:42:21;93700.00;;;14.68;45.41
42335;BME280;27986;42.700;24.178;2023-02-23T10:44:47;93700.47;;;14.87;45.10
42335;BME280;27986;42.700;24.178;2023-02-23T10:47:20;93730.28;;;15.02;44.32
42335;BME280;27986;42.700;24.178;2023-02-23T10:49:53;93715.44;;;14.88;44.85
42335;BME280;27986;42.700;24.178;2023-02-23T10:52:32;93691.13;;;15.08;45.04
42335;BME280;27986;42.700;24.178;2023-02-23T10:54:59;93700.31;;;15.37;43.93
42335;BME280;27986;42.700;24.178;2023-02-23T10:57:30;93713.97;;;15.46;43.48
42335;BME280;27986;42.700;24.178;2023-02-23T11:02:51;93695.94;;;15.28;43.38
42335;BME280;27986;42.700;24.178;2023-02-23T11:08:19;93700.47;;;16.05;41.75
42335;BME280;27986;42.700;24.178;2023-02-23T11:11:06;93696.28;;;16.22;41.06
42335;BME280;27986;42.700;24.178;2023-02-23T11:13:44;93695.53;;;16.14;41.11
42335;BME280;27986;42.700;24.178;2023-02-23T11:18:52;93698.00;;;16.10;41.28
42335;BME280;27986;42.700;24.178;2023-02-23T11:21:33;93685.47;;;15.97;41.07
42335;BME280;27986;42.700;24.178;2023-02-23T11:24:22;93687.97;;;16.09;40.70
42335;BME280;27986;42.700;24.178;2023-02-23T11:26:51;93699.34;;;16.01;42.93
42335;BME280;27986;42.700;24.178;2023-02-23T11:29:38;93672.94;;;16.54;40.94
42335;BME280;27986;42.700;24.178;2023-02-23T11:32:19;93685.22;;;16.87;40.72
42335;BME280;27986;42.700;24.178;2023-02-23T11:34:47;93673.69;;;17.33;39.77
42335;BME280;27986;42.700;24.178;2023-02-23T11:39:54;93658.63;;;17.00;39.01
42335;BME280;27986;42.700;24.178;2023-02-23T11:42:21;93665.69;;;16.91;39.07
42335;BME280;27986;42.700;24.178;2023-02-23T11:45:15;93678.63;;;16.61;38.29
42335;BME280;27986;42.700;24.178;2023-02-23T11:47:46;93678.06;;;16.71;38.20
42335;BME280;27986;42.700;24.178;2023-02-23T11:50:29;93662.44;;;16.95;37.71
42335;BME280;27986;42.700;24.178;2023-02-23T11:53:12;93648.66;;;16.45;39.58
42335;BME280;27986;42.700;24.178;2023-02-23T11:55:48;93654.69;;;16.65;39.27
42335;BME280;27986;42.700;24.178;2023-02-23T11:58:26;93650.19;;;16.46;39.38
42335;BME280;27986;42.700;24.178;2023-02-23T12:00:59;93671.09;;;16.33;39.65
42335;BME280;27986;42.700;24.178;2023-02-23T12:03:28;93650.78;;;16.37;38.70
42335;BME280;27986;42.700;24.178;2023-02-23T12:05:58;93673.69;;;16.62;38.93
42335;BME280;27986;42.700;24.178;2023-02-23T12:08:43;93678.25;;;16.57;39.15
42335;BME280;27986;42.700;24.178;2023-02-23T12:11:20;93648.47;;;16.58;39.17
42335;BME280;27986;42.700;24.178;2023-02-23T12:14:13;93661.94;;;16.58;40.25
42335;BME280;27986;42.700;24.178;2023-02-23T12:16:49;93645.59;;;16.66;39.58
42335;BME280;27986;42.700;24.178;2023-02-23T12:19:30;93671.97;;;16.82;39.62
42335;BME280;27986;42.700;24.178;2023-02-23T12:22:14;93655.66;;;16.67;39.64
42335;BME280;27986;42.700;24.178;2023-02-23T12:32:58;93657.03;;;16.43;40.45
42335;BME280;27986;42.700;24.178;2023-02-23T12:35:55;93681.47;;;16.54;40.67
42335;BME280;27986;42.700;24.178;2023-02-23T12:41:13;93686.94;;;16.90;40.01
42335;BME280;27986;42.700;24.178;2023-02-23T12:43:50;93667.22;;;16.84;40.28
42335;BME280;27986;42.700;24.178;2023-02-23T12:46:25;93658.34;;;16.50;40.04
42335;BME280;27986;42.700;24.178;2023-02-23T12:52:20;93674.81;;;16.67;39.83
42335;BME280;27986;42.700;24.178;2023-02-23T12:54:50;93675.03;;;16.69;40.70
42335;BME280;27986;42.700;24.178;2023-02-23T13:06:12;93685.88;;;16.17;41.43
42335;BME280;27986;42.700;24.178;2023-02-23T13:14:26;93660.66;;;15.98;41.82
42335;BME280;27986;42.700;24.178;2023-02-23T13:22:09;93685.47;;;16.43;41.35
42335;BME280;27986;42.700;24.178;2023-02-23T13:24:53;93683.72;;;16.63;41.36
42335;BME280;27986;42.700;24.178;2023-02-23T13:27:34;93671.41;;;16.76;40.92
42335;BME280;27986;42.700;24.178;2023-02-23T13:30:03;93678.84;;;16.48;41.14
42335;BME280;27986;42.700;24.178;2023-02-23T13:32:32;93685.31;;;16.18;41.47
42335;BME280;27986;42.700;24.178;2023-02-23T13:35:02;93665.22;;;16.01;41.59
42335;BME280;27986;42.700;24.178;2023-02-23T13:45:34;93697.69;;;17.55;39.29
42335;BME280;27986;42.700;24.178;2023-02-23T13:51:07;93695.94;;;17.67;38.79
42335;BME280;27986;42.700;24.178;2023-02-23T13:53:42;93702.16;;;18.06;39.56
42335;BME280;27986;42.700;24.178;2023-02-23T13:56:25;93678.75;;;17.42;39.79
42335;BME280;27986;42.700;24.178;2023-02-23T13:59:04;93692.13;;;17.64;40.10
42335;BME280;27986;42.700;24.178;2023-02-23T14:01:38;93645.63;;;17.14;39.94
42335;BME280;27986;42.700;24.178;2023-02-23T14:04:12;93665.44;;;17.04;40.95
42335;BME280;27986;42.700;24.178;2023-02-23T14:06:40;93678.44;;;17.23;40.79
42335;BME280;27986;42.700;24.178;2023-02-23T14:09:20;93685.41;;;16.89;40.93
42335;BME280;27986;42.700;24.178;2023-02-23T14:19:58;93666.34;;;16.13;43.31
42335;BME280;27986;42.700;24.178;2023-02-23T14:22:28;93723.63;;;16.17;43.32
42335;BME280;27986;42.700;24.178;2023-02-23T14:27:58;93718.88;;;15.30;44.12
42335;BME280;27986;42.700;24.178;2023-02-23T14:30:42;93712.63;;;14.96;45.57
42335;BME280;27986;42.700;24.178;2023-02-23T14:36:00;93695.72;;;14.46;46.72
42335;BME280;27986;42.700;24.178;2023-02-23T14:38:31;93705.28;;;14.64;46.66
42335;BME280;27986;42.700;24.178;2023-02-23T14:41:00;93736.09;;;14.96;46.15
42335;BME280;27986;42.700;24.178;2023-02-23T14:46:22;93723.94;;;14.88;46.20
42335;BME280;27986;42.700;24.178;2023-02-23T14:51:36;93724.19;;;14.61;47.30
42335;BME280;27986;42.700;24.178;2023-02-23T14:56:48;93690.81;;;14.26;47.55
42335;BME280;27986;42.700;24.178;2023-02-23T14:59:19;93733.69;;;14.43;48.17
42335;BME280;27986;42.700;24.178;2023-02-23T15:01:46;93720.25;;;14.15;48.58
42335;BME280;27986;42.700;24.178;2023-02-23T15:04:31;93750.59;;;14.07;49.49
42335;BME280;27986;42.700;24.178;2023-02-23T15:06:59;93715.81;;;13.65;50.22
42335;BME280;27986;42.700;24.178;2023-02-23T15:09:38;93752.44;;;13.84;50.58
42335;BME280;27986;42.700;24.178;2023-02-23T15:12:13;93720.47;;;13.41;50.86
42335;BME280;27986;42.700;24.178;2023-02-23T15:14:41;93750.00;;;13.46;51.64
42335;BME280;27986;42.700;24.178;2023-02-23T15:17:13;93740.66;;;13.38;51.68
42335;BME280;27986;42.700;24.178;2023-02-23T15:19:40;93770.53;;;13.60;51.80
42335;BME280;27986;42.700;24.178;2023-02-23T15:22:06;93755.72;;;13.53;51.47
42335;BME280;27986;42.700;24.178;2023-02-23T15:24:40;93771.97;;;13.53;52.09
42335;BME280;27986;42.700;24.178;2023-02-23T15:27:15;93768.25;;;12.98;53.93
42335;BME280;27986;42.700;24.178;2023-02-23T15:29:42;93771.72;;;12.90;54.62
42335;BME280;27986;42.700;24.178;2023-02-23T15:32:23;93787.38;;;13.18;54.13
42335;BME280;27986;42.700;24.178;2023-02-23T15:34:53;93787.16;;;13.16;54.52
42335;BME280;27986;42.700;24.178;2023-02-23T15:40:05;93789.22;;;12.36;58.14
42335;BME280;27986;42.700;24.178;2023-02-23T15:42:38;93779.75;;;12.20;58.85
42335;BME280;27986;42.700;24.178;2023-02-23T15:45:34;93806.34;;;12.70;58.01
42335;BME280;27986;42.700;24.178;2023-02-23T15:48:01;93789.69;;;12.93;56.38